sensor_id;sensor_type;location;lat;lon;timestamp;P1;durP1;ratioP1;P2;durP2;ratioP2
9398;SDS011;4739;49.334;8.792;2022-10-16T00:01:59;5.93;;;1.97;;
9398;SDS011;4739;49.334;8.792;2022-10-16T00:04:24;5.93;;;2.07;;
9398;SDS011;4739;49.334;8.792;2022-10-16T00:06:50;4.67;;;2.00;;
9398;SDS011;4739;49.334;8.792;2022-10-16T00:09:16;7.33;;;2.03;;
9398;SDS011;4739;49.334;8.792;2022-10-16T00:11:41;3.93;;;2.30;;
9398;SDS011;4739;49.334;8.792;2022-10-16T00:14:08;9.33;;;2.77;;
9398;SDS011;4739;49.334;8.792;2022-10-16T00:16:36;5.30;;;1.97;;
9398;SDS011;4739;49.334;8.792;2022-10-16T00:19:02;7.60;;;2.67;;
9398;SDS011;4739;49.334;8.792;2022-10-16T00:21:29;5.23;;;2.47;;
9398;SDS011;4739;49.334;8.792;2022-10-16T00:23:57;8.30;;;2.80;;
9398;SDS011;4739;49.334;8.792;2022-10-16T00:26:24;7.07;;;2.23;;
9398;SDS011;4739;49.334;8.792;2022-10-16T00:28:51;9.07;;;2.00;;
9398;SDS011;4739;49.334;8.792;2022-10-16T00:31:18;7.37;;;2.30;;
9398;SDS011;4739;49.334;8.792;2022-10-16T00:33:44;7.20;;;2.00;;
9398;SDS011;4739;49.334;8.792;2022-10-16T00:36:11;6.23;;;1.80;;
9398;SDS011;4739;49.334;8.792;2022-10-16T00:38:38;15.00;;;2.43;;
9398;SDS011;4739;49.334;8.792;2022-10-16T00:43:40;6.03;;;1.83;;
9398;SDS011;4739;49.334;8.792;2022-10-16T00:46:10;10.43;;;2.17;;
9398;SDS011;4739;49.334;8.792;2022-10-16T00:48:39;7.83;;;1.93;;
9398;SDS011;4739;49.334;8.792;2022-10-16T00:51:06;4.23;;;1.80;;
9398;SDS011;4739;49.334;8.792;2022-10-16T00:53:33;5.57;;;1.90;;
9398;SDS011;4739;49.334;8.792;2022-10-16T00:55:59;4.00;;;1.90;;
9398;SDS011;4739;49.334;8.792;2022-10-16T00:58:26;9.97;;;1.87;;
9398;SDS011;4739;49.334;8.792;2022-10-16T01:00:51;6.80;;;2.00;;
9398;SDS011;4739;49.334;8.792;2022-10-16T01:05:52;7.70;;;1.50;;
9398;SDS011;4739;49.334;8.792;2022-10-16T01:14:06;9.13;;;1.70;;
9398;SDS011;4739;49.334;8.792;2022-10-16T01:21:56;6.47;;;1.73;;
9398;SDS011;4739;49.334;8.792;2022-10-16T01:24:31;4.50;;;1.50;;
9398;SDS011;4739;49.334;8.792;2022-10-16T01:29:34;5.00;;;1.60;;
9398;SDS011;4739;49.334;8.792;2022-10-16T01:32:05;9.83;;;1.90;;
9398;SDS011;4739;49.334;8.792;2022-10-16T01:34:46;3.63;;;1.50;;
9398;SDS011;4739;49.334;8.792;2022-10-16T01:37:18;4.63;;;1.50;;
9398;SDS011;4739;49.334;8.792;2022-10-16T01:40:13;7.63;;;1.60;;
9398;SDS011;4739;49.334;8.792;2022-10-16T01:42:42;7.00;;;1.90;;
9398;SDS011;4739;49.334;8.792;2022-10-16T01:45:20;6.07;;;2.37;;
9398;SDS011;4739;49.334;8.792;2022-10-16T01:47:46;5.60;;;1.70;;
9398;SDS011;4739;49.334;8.792;2022-10-16T01:50:14;4.00;;;1.50;;
9398;SDS011;4739;49.334;8.792;2022-10-16T01:52:43;10.50;;;1.67;;
9398;SDS011;4739;49.334;8.792;2022-10-16T01:55:12;10.50;;;1.80;;
9398;SDS011;4739;49.334;8.792;2022-10-16T01:57:41;4.80;;;1.70;;
9398;SDS011;4739;49.334;8.792;2022-10-16T02:00:12;3.27;;;1.50;;
9398;SDS011;4739;49.334;8.792;2022-10-16T02:02:41;5.30;;;1.80;;
9398;SDS011;4739;49.334;8.792;2022-10-16T02:05:23;8.33;;;2.30;;
9398;SDS011;4739;49.334;8.792;2022-10-16T02:07:53;7.07;;;1.70;;
9398;SDS011;4739;49.334;8.792;2022-10-16T02:10:19;4.87;;;1.60;;
9398;SDS011;4739;49.334;8.792;2022-10-16T02:12:46;3.50;;;1.40;;
9398;SDS011;4739;49.334;8.792;2022-10-16T02:15:16;6.23;;;2.10;;
9398;SDS011;4739;49.334;8.792;2022-10-16T02:17:41;6.20;;;2.10;;
9398;SDS011;4739;49.334;8.792;2022-10-16T02:20:07;4.17;;;1.50;;
9398;SDS011;4739;49.334;8.792;2022-10-16T02:22:41;6.40;;;1.73;;
9398;SDS011;4739;49.334;8.792;2022-10-16T02:25:19;3.60;;;1.50;;
9398;SDS011;4739;49.334;8.792;2022-10-16T02:27:53;8.53;;;1.73;;
9398;SDS011;4739;49.334;8.792;2022-10-16T02:30:24;3.43;;;1.60;;
9398;SDS011;4739;49.334;8.792;2022-10-16T02:32:57;5.57;;;1.40;;
9398;SDS011;4739;49.334;8.792;2022-10-16T02:35:24;7.93;;;2.17;;
9398;SDS011;4739;49.334;8.792;2022-10-16T02:37:52;4.50;;;1.47;;
9398;SDS011;4739;49.334;8.792;2022-10-16T02:40:18;9.70;;;2.10;;
9398;SDS011;4739;49.334;8.792;2022-10-16T02:42:44;10.00;;;1.90;;
9398;SDS011;4739;49.334;8.792;2022-10-16T02:45:16;5.93;;;1.70;;
9398;SDS011;4739;49.334;8.792;2022-10-16T02:47:41;11.37;;;1.90;;
9398;SDS011;4739;49.334;8.792;2022-10-16T02:50:07;8.20;;;2.03;;
9398;SDS011;4739;49.334;8.792;2022-10-16T02:52:33;7.23;;;1.60;;
9398;SDS011;4739;49.334;8.792;2022-10-16T02:54:58;10.20;;;1.63;;
9398;SDS011;4739;49.334;8.792;2022-10-16T02:57:24;8.13;;;1.43;;
9398;SDS011;4739;49.334;8.792;2022-10-16T02:59:49;7.73;;;1.50;;
9398;SDS011;4739;49.334;8.792;2022-10-16T03:02:15;7.50;;;1.83;;
9398;SDS011;4739;49.334;8.792;2022-10-16T03:04:41;6.57;;;1.60;;
9398;SDS011;4739;49.334;8.792;2022-10-16T03:07:07;7.60;;;1.60;;
9398;SDS011;4739;49.334;8.792;2022-10-16T03:09:32;5.10;;;1.80;;
9398;SDS011;4739;49.334;8.792;2022-10-16T03:11:58;7.63;;;2.10;;
9398;SDS011;4739;49.334;8.792;2022-10-16T03:14:24;6.37;;;1.93;;
9398;SDS011;4739;49.334;8.792;2022-10-16T03:16:49;3.57;;;1.37;;
9398;SDS011;4739;49.334;8.792;2022-10-16T03:19:16;7.30;;;2.17;;
9398;SDS011;4739;49.334;8.792;2022-10-16T03:21:42;8.37;;;2.00;;
9398;SDS011;4739;49.334;8.792;2022-10-16T03:24:07;3.93;;;1.83;;
9398;SDS011;4739;49.334;8.792;2022-10-16T03:26:33;6.43;;;1.87;;
9398;SDS011;4739;49.334;8.792;2022-10-16T03:28:58;4.97;;;1.60;;
9398;SDS011;4739;49.334;8.792;2022-10-16T03:31:24;8.20;;;1.97;;
9398;SDS011;4739;49.334;8.792;2022-10-16T03:33:50;9.40;;;2.10;;
9398;SDS011;4739;49.334;8.792;2022-10-16T03:36:15;5.63;;;1.53;;
9398;SDS011;4739;49.334;8.792;2022-10-16T03:38:41;6.70;;;1.80;;
9398;SDS011;4739;49.334;8.792;2022-10-16T03:43:42;8.77;;;2.00;;
9398;SDS011;4739;49.334;8.792;2022-10-16T03:46:07;8.17;;;1.90;;
9398;SDS011;4739;49.334;8.792;2022-10-16T03:48:33;6.20;;;1.97;;
9398;SDS011;4739;49.334;8.792;2022-10-16T03:50:58;5.63;;;1.77;;
9398;SDS011;4739;49.334;8.792;2022-10-16T03:53:24;9.27;;;1.80;;
9398;SDS011;4739;49.334;8.792;2022-10-16T03:55:50;8.67;;;1.97;;
9398;SDS011;4739;49.334;8.792;2022-10-16T03:58:16;5.87;;;1.70;;
9398;SDS011;4739;49.334;8.792;2022-10-16T04:00:44;4.53;;;1.97;;
9398;SDS011;4739;49.334;8.792;2022-10-16T04:03:11;5.80;;;1.63;;
9398;SDS011;4739;49.334;8.792;2022-10-16T04:05:37;7.23;;;1.90;;
9398;SDS011;4739;49.334;8.792;2022-10-16T04:08:03;4.93;;;2.00;;
9398;SDS011;4739;49.334;8.792;2022-10-16T04:10:29;7.07;;;2.50;;
9398;SDS011;4739;49.334;8.792;2022-10-16T04:12:55;5.90;;;2.30;;
9398;SDS011;4739;49.334;8.792;2022-10-16T04:15:20;6.27;;;2.10;;
9398;SDS011;4739;49.334;8.792;2022-10-16T04:17:49;6.90;;;1.87;;
9398;SDS011;4739;49.334;8.792;2022-10-16T04:20:16;3.77;;;2.10;;
9398;SDS011;4739;49.334;8.792;2022-10-16T04:22:42;6.37;;;1.77;;
9398;SDS011;4739;49.334;8.792;2022-10-16T04:25:07;6.53;;;2.20;;
9398;SDS011;4739;49.334;8.792;2022-10-16T04:27:33;12.93;;;2.73;;
9398;SDS011;4739;49.334;8.792;2022-10-16T04:29:59;6.20;;;2.00;;
9398;SDS011;4739;49.334;8.792;2022-10-16T04:32:25;6.40;;;2.30;;
9398;SDS011;4739;49.334;8.792;2022-10-16T04:34:51;4.97;;;2.27;;
9398;SDS011;4739;49.334;8.792;2022-10-16T04:37:17;4.33;;;2.30;;
9398;SDS011;4739;49.334;8.792;2022-10-16T04:39:43;4.70;;;2.20;;
9398;SDS011;4739;49.334;8.792;2022-10-16T04:42:09;8.87;;;2.20;;
9398;SDS011;4739;49.334;8.792;2022-10-16T04:44:35;4.73;;;2.33;;
9398;SDS011;4739;49.334;8.792;2022-10-16T04:47:01;5.77;;;2.13;;
9398;SDS011;4739;49.334;8.792;2022-10-16T04:49:26;3.57;;;1.90;;
9398;SDS011;4739;49.334;8.792;2022-10-16T04:51:52;4.10;;;1.60;;
9398;SDS011;4739;49.334;8.792;2022-10-16T04:54:17;5.63;;;1.90;;
9398;SDS011;4739;49.334;8.792;2022-10-16T04:56:43;3.90;;;2.00;;
9398;SDS011;4739;49.334;8.792;2022-10-16T04:59:12;2.93;;;2.10;;
9398;SDS011;4739;49.334;8.792;2022-10-16T05:01:41;5.97;;;1.90;;
9398;SDS011;4739;49.334;8.792;2022-10-16T05:04:07;3.63;;;1.73;;
9398;SDS011;4739;49.334;8.792;2022-10-16T05:06:33;7.70;;;2.00;;
9398;SDS011;4739;49.334;8.792;2022-10-16T05:08:58;4.27;;;1.63;;
9398;SDS011;4739;49.334;8.792;2022-10-16T05:11:24;4.13;;;1.93;;
9398;SDS011;4739;49.334;8.792;2022-10-16T05:13:49;5.00;;;1.60;;
9398;SDS011;4739;49.334;8.792;2022-10-16T05:16:15;5.10;;;1.80;;
9398;SDS011;4739;49.334;8.792;2022-10-16T05:18:41;6.17;;;2.03;;
9398;SDS011;4739;49.334;8.792;2022-10-16T05:21:06;3.53;;;1.90;;
9398;SDS011;4739;49.334;8.792;2022-10-16T05:23:32;4.77;;;2.13;;
9398;SDS011;4739;49.334;8.792;2022-10-16T05:25:57;2.73;;;1.97;;
9398;SDS011;4739;49.334;8.792;2022-10-16T05:28:24;4.30;;;1.80;;
9398;SDS011;4739;49.334;8.792;2022-10-16T05:30:51;6.10;;;2.30;;
9398;SDS011;4739;49.334;8.792;2022-10-16T05:33:19;2.90;;;1.70;;
9398;SDS011;4739;49.334;8.792;2022-10-16T05:35:45;8.47;;;2.07;;
9398;SDS011;4739;49.334;8.792;2022-10-16T05:38:11;5.20;;;1.73;;
9398;SDS011;4739;49.334;8.792;2022-10-16T05:40:37;3.23;;;1.80;;
9398;SDS011;4739;49.334;8.792;2022-10-16T05:43:02;5.33;;;1.70;;
9398;SDS011;4739;49.334;8.792;2022-10-16T05:45:28;6.10;;;1.93;;
9398;SDS011;4739;49.334;8.792;2022-10-16T05:47:54;7.37;;;2.40;;
9398;SDS011;4739;49.334;8.792;2022-10-16T05:50:19;11.33;;;2.33;;
9398;SDS011;4739;49.334;8.792;2022-10-16T05:52:45;6.23;;;2.43;;
9398;SDS011;4739;49.334;8.792;2022-10-16T05:55:10;3.70;;;1.70;;
9398;SDS011;4739;49.334;8.792;2022-10-16T05:57:36;2.97;;;1.70;;
9398;SDS011;4739;49.334;8.792;2022-10-16T06:00:02;5.50;;;2.10;;
9398;SDS011;4739;49.334;8.792;2022-10-16T06:02:28;6.03;;;1.87;;
9398;SDS011;4739;49.334;8.792;2022-10-16T06:04:54;8.23;;;2.53;;
9398;SDS011;4739;49.334;8.792;2022-10-16T06:07:19;8.43;;;2.10;;
9398;SDS011;4739;49.334;8.792;2022-10-16T06:09:52;5.67;;;2.10;;
9398;SDS011;4739;49.334;8.792;2022-10-16T06:12:18;4.77;;;2.00;;
9398;SDS011;4739;49.334;8.792;2022-10-16T06:14:44;3.40;;;1.80;;
9398;SDS011;4739;49.334;8.792;2022-10-16T06:17:12;5.50;;;1.77;;
9398;SDS011;4739;49.334;8.792;2022-10-16T06:19:38;4.93;;;2.17;;
9398;SDS011;4739;49.334;8.792;2022-10-16T06:22:04;4.10;;;2.30;;
9398;SDS011;4739;49.334;8.792;2022-10-16T06:24:29;7.50;;;3.27;;
9398;SDS011;4739;49.334;8.792;2022-10-16T06:26:55;4.63;;;3.00;;
9398;SDS011;4739;49.334;8.792;2022-10-16T06:29:21;9.40;;;2.30;;
9398;SDS011;4739;49.334;8.792;2022-10-16T06:31:46;1.70;;;1.60;;
9398;SDS011;4739;49.334;8.792;2022-10-16T06:34:12;3.93;;;2.40;;
9398;SDS011;4739;49.334;8.792;2022-10-16T06:36:38;2.90;;;2.10;;
9398;SDS011;4739;49.334;8.792;2022-10-16T06:39:04;3.60;;;2.47;;
9398;SDS011;4739;49.334;8.792;2022-10-16T06:41:32;5.23;;;2.60;;
9398;SDS011;4739;49.334;8.792;2022-10-16T06:43:58;4.97;;;2.50;;
9398;SDS011;4739;49.334;8.792;2022-10-16T06:46:24;6.67;;;2.57;;
9398;SDS011;4739;49.334;8.792;2022-10-16T06:48:51;8.83;;;3.03;;
9398;SDS011;4739;49.334;8.792;2022-10-16T06:51:18;3.57;;;3.07;;
9398;SDS011;4739;49.334;8.792;2022-10-16T06:53:52;6.67;;;3.47;;
9398;SDS011;4739;49.334;8.792;2022-10-16T06:56:22;4.83;;;3.30;;
9398;SDS011;4739;49.334;8.792;2022-10-16T06:58:50;3.37;;;3.00;;
9398;SDS011;4739;49.334;8.792;2022-10-16T07:01:16;4.10;;;3.27;;
9398;SDS011;4739;49.334;8.792;2022-10-16T07:03:44;5.50;;;3.33;;
9398;SDS011;4739;49.334;8.792;2022-10-16T07:06:12;4.80;;;2.90;;
9398;SDS011;4739;49.334;8.792;2022-10-16T07:08:41;5.47;;;2.87;;
9398;SDS011;4739;49.334;8.792;2022-10-16T07:11:09;3.67;;;2.63;;
9398;SDS011;4739;49.334;8.792;2022-10-16T07:13:36;2.70;;;2.40;;
9398;SDS011;4739;49.334;8.792;2022-10-16T07:16:07;3.37;;;2.63;;
9398;SDS011;4739;49.334;8.792;2022-10-16T07:18:34;3.00;;;2.70;;
9398;SDS011;4739;49.334;8.792;2022-10-16T07:21:05;4.27;;;2.60;;
9398;SDS011;4739;49.334;8.792;2022-10-16T07:23:34;4.27;;;2.80;;
9398;SDS011;4739;49.334;8.792;2022-10-16T07:25:59;2.70;;;1.90;;
9398;SDS011;4739;49.334;8.792;2022-10-16T07:28:25;2.53;;;2.00;;
9398;SDS011;4739;49.334;8.792;2022-10-16T07:30:51;3.13;;;2.37;;
9398;SDS011;4739;49.334;8.792;2022-10-16T07:33:16;2.73;;;2.47;;
9398;SDS011;4739;49.334;8.792;2022-10-16T07:35:51;3.37;;;2.33;;
9398;SDS011;4739;49.334;8.792;2022-10-16T07:38:18;2.47;;;2.10;;
9398;SDS011;4739;49.334;8.792;2022-10-16T07:40:45;2.93;;;2.30;;
9398;SDS011;4739;49.334;8.792;2022-10-16T07:43:10;2.73;;;1.80;;
9398;SDS011;4739;49.334;8.792;2022-10-16T07:45:36;4.23;;;2.10;;
9398;SDS011;4739;49.334;8.792;2022-10-16T07:48:03;2.80;;;1.97;;
9398;SDS011;4739;49.334;8.792;2022-10-16T07:50:29;2.50;;;1.70;;
9398;SDS011;4739;49.334;8.792;2022-10-16T07:52:54;4.73;;;2.07;;
9398;SDS011;4739;49.334;8.792;2022-10-16T07:55:20;2.47;;;1.83;;
9398;SDS011;4739;49.334;8.792;2022-10-16T07:57:45;5.70;;;1.90;;
9398;SDS011;4739;49.334;8.792;2022-10-16T08:00:11;3.40;;;1.60;;
9398;SDS011;4739;49.334;8.792;2022-10-16T08:02:39;3.57;;;1.97;;
9398;SDS011;4739;49.334;8.792;2022-10-16T08:05:05;2.87;;;1.67;;
9398;SDS011;4739;49.334;8.792;2022-10-16T08:07:31;3.23;;;1.50;;
9398;SDS011;4739;49.334;8.792;2022-10-16T08:09:57;1.67;;;1.50;;
9398;SDS011;4739;49.334;8.792;2022-10-16T08:12:23;5.67;;;1.73;;
9398;SDS011;4739;49.334;8.792;2022-10-16T08:14:50;3.23;;;1.63;;
9398;SDS011;4739;49.334;8.792;2022-10-16T08:17:15;1.83;;;1.50;;
9398;SDS011;4739;49.334;8.792;2022-10-16T08:19:47;2.40;;;1.70;;
9398;SDS011;4739;49.334;8.792;2022-10-16T08:22:13;2.20;;;1.53;;
9398;SDS011;4739;49.334;8.792;2022-10-16T08:24:39;2.80;;;1.60;;
9398;SDS011;4739;49.334;8.792;2022-10-16T08:27:05;5.03;;;1.43;;
9398;SDS011;4739;49.334;8.792;2022-10-16T08:29:32;2.80;;;1.63;;
9398;SDS011;4739;49.334;8.792;2022-10-16T08:31:58;3.90;;;1.60;;
9398;SDS011;4739;49.334;8.792;2022-10-16T08:34:23;2.93;;;1.50;;
9398;SDS011;4739;49.334;8.792;2022-10-16T08:36:49;4.30;;;1.70;;
9398;SDS011;4739;49.334;8.792;2022-10-16T08:39:15;3.10;;;1.87;;
9398;SDS011;4739;49.334;8.792;2022-10-16T08:44:34;3.07;;;1.70;;
9398;SDS011;4739;49.334;8.792;2022-10-16T08:47:17;4.27;;;1.70;;
9398;SDS011;4739;49.334;8.792;2022-10-16T08:49:55;3.27;;;1.67;;
9398;SDS011;4739;49.334;8.792;2022-10-16T08:52:29;3.47;;;1.80;;
9398;SDS011;4739;49.334;8.792;2022-10-16T08:54:57;2.23;;;2.00;;
9398;SDS011;4739;49.334;8.792;2022-10-16T08:57:24;3.93;;;1.73;;
9398;SDS011;4739;49.334;8.792;2022-10-16T08:59:52;2.20;;;1.70;;
9398;SDS011;4739;49.334;8.792;2022-10-16T09:02:33;2.77;;;1.60;;
9398;SDS011;4739;49.334;8.792;2022-10-16T09:13:29;2.07;;;1.90;;
9398;SDS011;4739;49.334;8.792;2022-10-16T09:19:04;3.40;;;1.60;;
9398;SDS011;4739;49.334;8.792;2022-10-16T09:21:35;3.57;;;1.87;;
9398;SDS011;4739;49.334;8.792;2022-10-16T09:24:08;2.57;;;2.07;;
9398;SDS011;4739;49.334;8.792;2022-10-16T09:26:35;2.27;;;1.67;;
9398;SDS011;4739;49.334;8.792;2022-10-16T09:29:00;3.23;;;1.90;;
9398;SDS011;4739;49.334;8.792;2022-10-16T09:31:26;3.23;;;2.23;;
9398;SDS011;4739;49.334;8.792;2022-10-16T09:33:53;3.10;;;2.30;;
9398;SDS011;4739;49.334;8.792;2022-10-16T09:36:23;3.43;;;2.00;;
9398;SDS011;4739;49.334;8.792;2022-10-16T09:39:00;5.23;;;1.90;;
9398;SDS011;4739;49.334;8.792;2022-10-16T09:41:28;5.53;;;2.13;;
9398;SDS011;4739;49.334;8.792;2022-10-16T09:46:42;2.93;;;1.40;;
9398;SDS011;4739;49.334;8.792;2022-10-16T09:49:23;2.67;;;1.33;;
9398;SDS011;4739;49.334;8.792;2022-10-16T09:52:02;3.37;;;1.33;;
9398;SDS011;4739;49.334;8.792;2022-10-16T09:54:29;2.03;;;1.20;;
9398;SDS011;4739;49.334;8.792;2022-10-16T09:57:04;1.50;;;1.30;;
9398;SDS011;4739;49.334;8.792;2022-10-16T09:59:30;2.67;;;1.30;;
9398;SDS011;4739;49.334;8.792;2022-10-16T10:01:56;1.73;;;1.20;;
9398;SDS011;4739;49.334;8.792;2022-10-16T10:04:36;2.83;;;1.23;;
9398;SDS011;4739;49.334;8.792;2022-10-16T10:07:05;6.83;;;1.60;;
9398;SDS011;4739;49.334;8.792;2022-10-16T10:09:40;2.10;;;1.40;;
9398;SDS011;4739;49.334;8.792;2022-10-16T10:12:25;6.00;;;1.67;;
9398;SDS011;4739;49.334;8.792;2022-10-16T10:14:52;3.77;;;1.47;;
9398;SDS011;4739;49.334;8.792;2022-10-16T10:17:26;1.67;;;1.43;;
9398;SDS011;4739;49.334;8.792;2022-10-16T10:19:54;3.73;;;1.70;;
9398;SDS011;4739;49.334;8.792;2022-10-16T10:33:34;2.50;;;1.23;;
9398;SDS011;4739;49.334;8.792;2022-10-16T10:36:25;2.40;;;1.40;;
9398;SDS011;4739;49.334;8.792;2022-10-16T10:39:15;3.17;;;1.20;;
9398;SDS011;4739;49.334;8.792;2022-10-16T10:42:03;2.20;;;1.10;;
9398;SDS011;4739;49.334;8.792;2022-10-16T10:44:46;3.40;;;1.30;;
9398;SDS011;4739;49.334;8.792;2022-10-16T10:50:38;2.45;;;1.23;;
9398;SDS011;4739;49.334;8.792;2022-10-16T10:53:24;5.00;;;1.53;;
9398;SDS011;4739;49.334;8.792;2022-10-16T11:06:43;2.97;;;1.20;;
9398;SDS011;4739;49.334;8.792;2022-10-16T11:09:24;3.65;;;1.75;;
9398;SDS011;4739;49.334;8.792;2022-10-16T11:11:55;5.75;;;1.70;;
9398;SDS011;4739;49.334;8.792;2022-10-16T11:15:11;2.63;;;1.60;;
9398;SDS011;4739;49.334;8.792;2022-10-16T11:19:56;2.83;;;1.40;;
9398;SDS011;4739;49.334;8.792;2022-10-16T11:25:12;5.53;;;1.52;;
9398;SDS011;4739;49.334;8.792;2022-10-16T11:27:47;3.70;;;1.17;;
9398;SDS011;4739;49.334;8.792;2022-10-16T11:43:52;1.40;;;1.17;;
9398;SDS011;4739;49.334;8.792;2022-10-16T11:46:42;2.20;;;1.30;;
9398;SDS011;4739;49.334;8.792;2022-10-16T11:49:18;3.33;;;1.20;;
9398;SDS011;4739;49.334;8.792;2022-10-16T11:54:32;2.88;;;1.20;;
9398;SDS011;4739;49.334;8.792;2022-10-16T11:57:22;1.80;;;1.42;;
9398;SDS011;4739;49.334;8.792;2022-10-16T11:59:55;8.77;;;1.42;;
9398;SDS011;4739;49.334;8.792;2022-10-16T12:02:35;6.22;;;1.40;;
9398;SDS011;4739;49.334;8.792;2022-10-16T12:08:12;4.97;;;1.40;;
9398;SDS011;4739;49.334;8.792;2022-10-16T12:10:40;3.30;;;1.30;;
9398;SDS011;4739;49.334;8.792;2022-10-16T12:16:06;7.07;;;1.55;;
9398;SDS011;4739;49.334;8.792;2022-10-16T12:18:38;3.10;;;1.10;;
9398;SDS011;4739;49.334;8.792;2022-10-16T12:21:05;3.70;;;1.40;;
9398;SDS011;4739;49.334;8.792;2022-10-16T12:23:32;5.75;;;1.45;;
9398;SDS011;4739;49.334;8.792;2022-10-16T12:26:03;5.32;;;1.40;;
9398;SDS011;4739;49.334;8.792;2022-10-16T12:28:30;7.30;;;1.77;;
9398;SDS011;4739;49.334;8.792;2022-10-16T12:30:58;3.35;;;1.45;;
9398;SDS011;4739;49.334;8.792;2022-10-16T12:33:27;6.13;;;1.60;;
9398;SDS011;4739;49.334;8.792;2022-10-16T12:36:05;4.13;;;1.45;;
9398;SDS011;4739;49.334;8.792;2022-10-16T12:38:47;3.65;;;1.40;;
9398;SDS011;4739;49.334;8.792;2022-10-16T12:41:24;11.68;;;2.00;;
9398;SDS011;4739;49.334;8.792;2022-10-16T12:43:57;8.80;;;2.00;;
9398;SDS011;4739;49.334;8.792;2022-10-16T12:49:05;6.63;;;1.85;;
9398;SDS011;4739;49.334;8.792;2022-10-16T12:51:40;4.55;;;1.50;;
9398;SDS011;4739;49.334;8.792;2022-10-16T12:54:14;7.65;;;1.65;;
9398;SDS011;4739;49.334;8.792;2022-10-16T13:13:34;7.15;;;1.65;;
9398;SDS011;4739;49.334;8.792;2022-10-16T13:16:12;11.60;;;2.00;;
9398;SDS011;4739;49.334;8.792;2022-10-16T13:24:23;10.13;;;2.13;;
9398;SDS011;4739;49.334;8.792;2022-10-16T13:27:20;6.18;;;1.67;;
9398;SDS011;4739;49.334;8.792;2022-10-16T13:30:00;5.72;;;1.80;;
9398;SDS011;4739;49.334;8.792;2022-10-16T13:32:33;9.88;;;1.83;;
9398;SDS011;4739;49.334;8.792;2022-10-16T13:34:58;7.72;;;1.70;;
9398;SDS011;4739;49.334;8.792;2022-10-16T13:37:25;12.35;;;2.08;;
9398;SDS011;4739;49.334;8.792;2022-10-16T13:40:01;8.55;;;2.03;;
9398;SDS011;4739;49.334;8.792;2022-10-16T13:42:32;7.28;;;2.35;;
9398;SDS011;4739;49.334;8.792;2022-10-16T13:44:58;11.27;;;2.63;;
9398;SDS011;4739;49.334;8.792;2022-10-16T13:47:24;6.60;;;1.95;;
9398;SDS011;4739;49.334;8.792;2022-10-16T13:52:31;26.55;;;2.92;;
9398;SDS011;4739;49.334;8.792;2022-10-16T13:54:57;8.15;;;1.92;;
9398;SDS011;4739;49.334;8.792;2022-10-16T13:57:24;10.05;;;2.30;;
9398;SDS011;4739;49.334;8.792;2022-10-16T13:59:50;12.77;;;2.50;;
9398;SDS011;4739;49.334;8.792;2022-10-16T14:02:26;18.03;;;2.30;;
9398;SDS011;4739;49.334;8.792;2022-10-16T14:04:55;13.50;;;2.90;;
9398;SDS011;4739;49.334;8.792;2022-10-16T14:07:29;13.43;;;2.03;;
9398;SDS011;4739;49.334;8.792;2022-10-16T14:10:00;13.40;;;2.67;;
9398;SDS011;4739;49.334;8.792;2022-10-16T14:12:30;14.23;;;2.90;;
9398;SDS011;4739;49.334;8.792;2022-10-16T14:14:57;11.67;;;2.50;;
9398;SDS011;4739;49.334;8.792;2022-10-16T14:17:25;11.30;;;2.63;;
9398;SDS011;4739;49.334;8.792;2022-10-16T14:19:54;11.13;;;2.50;;
9398;SDS011;4739;49.334;8.792;2022-10-16T14:24:55;7.27;;;2.70;;
9398;SDS011;4739;49.334;8.792;2022-10-16T14:27:26;8.67;;;2.60;;
9398;SDS011;4739;49.334;8.792;2022-10-16T14:30:08;7.67;;;4.17;;
9398;SDS011;4739;49.334;8.792;2022-10-16T14:32:42;8.20;;;3.07;;
9398;SDS011;4739;49.334;8.792;2022-10-16T14:35:31;10.03;;;3.17;;
9398;SDS011;4739;49.334;8.792;2022-10-16T14:38:00;4.67;;;2.70;;
9398;SDS011;4739;49.334;8.792;2022-10-16T14:40:28;7.13;;;2.57;;
9398;SDS011;4739;49.334;8.792;2022-10-16T14:42:59;10.43;;;2.83;;
9398;SDS011;4739;49.334;8.792;2022-10-16T14:45:27;7.43;;;2.23;;
9398;SDS011;4739;49.334;8.792;2022-10-16T14:47:56;10.03;;;2.40;;
9398;SDS011;4739;49.334;8.792;2022-10-16T14:50:23;9.40;;;2.33;;
9398;SDS011;4739;49.334;8.792;2022-10-16T14:52:49;9.33;;;2.00;;
9398;SDS011;4739;49.334;8.792;2022-10-16T14:55:15;11.00;;;2.07;;
9398;SDS011;4739;49.334;8.792;2022-10-16T14:57:42;6.10;;;2.03;;
9398;SDS011;4739;49.334;8.792;2022-10-16T15:00:13;3.60;;;2.07;;
9398;SDS011;4739;49.334;8.792;2022-10-16T15:02:44;10.40;;;2.13;;
9398;SDS011;4739;49.334;8.792;2022-10-16T15:07:47;15.80;;;2.73;;
9398;SDS011;4739;49.334;8.792;2022-10-16T15:10:14;13.83;;;2.50;;
9398;SDS011;4739;49.334;8.792;2022-10-16T15:12:41;9.47;;;2.50;;
9398;SDS011;4739;49.334;8.792;2022-10-16T15:17:59;12.33;;;2.60;;
9398;SDS011;4739;49.334;8.792;2022-10-16T15:20:33;14.50;;;2.97;;
9398;SDS011;4739;49.334;8.792;2022-10-16T15:23:03;6.30;;;2.00;;
9398;SDS011;4739;49.334;8.792;2022-10-16T15:25:47;10.93;;;2.40;;
9398;SDS011;4739;49.334;8.792;2022-10-16T15:28:15;16.57;;;2.37;;
9398;SDS011;4739;49.334;8.792;2022-10-16T15:30:42;10.23;;;2.47;;
9398;SDS011;4739;49.334;8.792;2022-10-16T15:33:11;15.63;;;2.97;;
9398;SDS011;4739;49.334;8.792;2022-10-16T15:35:39;15.73;;;2.90;;
9398;SDS011;4739;49.334;8.792;2022-10-16T15:38:05;11.60;;;2.40;;
9398;SDS011;4739;49.334;8.792;2022-10-16T15:40:30;7.70;;;2.30;;
9398;SDS011;4739;49.334;8.792;2022-10-16T15:42:56;10.60;;;2.70;;
9398;SDS011;4739;49.334;8.792;2022-10-16T15:45:22;14.03;;;3.33;;
9398;SDS011;4739;49.334;8.792;2022-10-16T15:47:47;13.03;;;2.80;;
9398;SDS011;4739;49.334;8.792;2022-10-16T15:50:13;10.17;;;2.47;;
9398;SDS011;4739;49.334;8.792;2022-10-16T15:52:40;12.83;;;2.97;;
9398;SDS011;4739;49.334;8.792;2022-10-16T15:55:07;14.10;;;3.40;;
9398;SDS011;4739;49.334;8.792;2022-10-16T15:57:34;7.70;;;3.27;;
9398;SDS011;4739;49.334;8.792;2022-10-16T16:00:03;12.83;;;3.00;;
9398;SDS011;4739;49.334;8.792;2022-10-16T16:02:30;7.97;;;2.80;;
9398;SDS011;4739;49.334;8.792;2022-10-16T16:04:56;11.93;;;3.03;;
9398;SDS011;4739;49.334;8.792;2022-10-16T16:07:22;15.57;;;3.53;;
9398;SDS011;4739;49.334;8.792;2022-10-16T16:09:47;6.40;;;2.57;;
9398;SDS011;4739;49.334;8.792;2022-10-16T16:12:13;8.23;;;3.10;;
9398;SDS011;4739;49.334;8.792;2022-10-16T16:14:39;11.53;;;3.23;;
9398;SDS011;4739;49.334;8.792;2022-10-16T16:17:04;12.03;;;2.73;;
9398;SDS011;4739;49.334;8.792;2022-10-16T16:19:30;8.77;;;2.43;;
9398;SDS011;4739;49.334;8.792;2022-10-16T16:21:56;9.93;;;2.87;;
9398;SDS011;4739;49.334;8.792;2022-10-16T16:24:22;12.67;;;3.10;;
9398;SDS011;4739;49.334;8.792;2022-10-16T16:26:47;7.13;;;2.70;;
9398;SDS011;4739;49.334;8.792;2022-10-16T16:29:14;9.70;;;3.23;;
9398;SDS011;4739;49.334;8.792;2022-10-16T16:31:40;11.40;;;2.80;;
9398;SDS011;4739;49.334;8.792;2022-10-16T16:34:06;15.17;;;3.10;;
9398;SDS011;4739;49.334;8.792;2022-10-16T16:36:32;13.47;;;3.07;;
9398;SDS011;4739;49.334;8.792;2022-10-16T16:38:58;10.60;;;3.03;;
9398;SDS011;4739;49.334;8.792;2022-10-16T16:41:25;13.23;;;3.10;;
9398;SDS011;4739;49.334;8.792;2022-10-16T16:43:53;8.37;;;3.07;;
9398;SDS011;4739;49.334;8.792;2022-10-16T16:46:19;11.80;;;3.30;;
9398;SDS011;4739;49.334;8.792;2022-10-16T16:48:45;11.20;;;2.90;;
9398;SDS011;4739;49.334;8.792;2022-10-16T16:51:15;8.47;;;2.80;;
9398;SDS011;4739;49.334;8.792;2022-10-16T16:53:44;11.60;;;2.97;;
9398;SDS011;4739;49.334;8.792;2022-10-16T16:56:14;10.63;;;2.87;;
9398;SDS011;4739;49.334;8.792;2022-10-16T16:58:40;8.80;;;3.17;;
9398;SDS011;4739;49.334;8.792;2022-10-16T17:01:10;10.20;;;3.23;;
9398;SDS011;4739;49.334;8.792;2022-10-16T17:03:35;8.00;;;2.90;;
9398;SDS011;4739;49.334;8.792;2022-10-16T17:06:02;10.63;;;2.80;;
9398;SDS011;4739;49.334;8.792;2022-10-16T17:08:30;9.70;;;3.23;;
9398;SDS011;4739;49.334;8.792;2022-10-16T17:10:56;8.03;;;2.80;;
9398;SDS011;4739;49.334;8.792;2022-10-16T17:13:23;10.90;;;3.17;;
9398;SDS011;4739;49.334;8.792;2022-10-16T17:15:50;9.70;;;3.10;;
9398;SDS011;4739;49.334;8.792;2022-10-16T17:18:17;10.43;;;3.60;;
9398;SDS011;4739;49.334;8.792;2022-10-16T17:20:43;7.83;;;3.47;;
9398;SDS011;4739;49.334;8.792;2022-10-16T17:23:09;9.63;;;3.57;;
9398;SDS011;4739;49.334;8.792;2022-10-16T17:25:38;6.60;;;3.20;;
9398;SDS011;4739;49.334;8.792;2022-10-16T17:28:04;8.80;;;3.60;;
9398;SDS011;4739;49.334;8.792;2022-10-16T17:30:30;9.13;;;3.77;;